New Orleans Nas Jrb,Alvin Callender Field, Airport New Orleans US
ICAO: KNBG
IATA: NBG
Category: Medium
Scheduled Services: No

Elevation: 2 ft
TransAlt. 18000 ft.

Airport Communications:
APP/DEP:123.85
ATIS:27.62
NAVY NEW ORLEANS GND:121.6
USCG NEW ORLEANS AIR:38.18
BASE OPS:37.915
PMSV METRO:26.58
NAVY NEW ORLEANS TWR:123.8

KNBG Zoom In..

Runways:

(A) RW 04 length 10000 ft width 200 ft
ILS 109.50 / hdg 44

(B) RW 14 length 6000 ft width 200 ft
---- / hdg 141

(C) RW 22 length 10000 ft width 200 ft
---- / hdg 224

(D) RW 32 length 6000 ft width 200 ft
---- / hdg 321

Location; KNBG
Day. 16 / Time. 17.55 Zulu
* Altimeter: 30.05
* Temperature: 6/° c. 42.8°f.
* Wind from: 000° Speed 00 kn.
Dewpoint: //° c.
Visibility: 7 Statute Miles.
Clouds: Few 2500 ft.
Clouds: Scattered 3500 ft.
Clouds: Overcast 25000 ft.
Conditions: Light Rain.Conditions: Cumulonimbus.

KNBG 161755Z 00000KT 7SM -RA FEW025CB SCT035 OVC250 32/27 A3005 RMK AO2 RAB55 SLP173 CB SE-SW MOV N T1 SET 6//// T03220267 10322 20261 58007 PNO $


Wind - Calm.

 
 
jpsmedia.com for Web Design worldairports.se 2018   terms of use